Time;durP1;ratioP1;P1;durP2;ratioP2;P2;SDS_P1;SDS_P2;PMS_P1;PMS_P2;Temp;Humidity;BMP_temperature;BMP_pressure;BME280_temperature;BME280_humidity;BME280_pressure;Samples;Min_cycle;Max_cycle;Signal;HPM_P1;HPM_P2
2023/01/09 00:01:57;;;;;;;0.40;0.25;;;;;;;15.32;50.31;99249.38;5005067;28;20478;-69
2023/01/09 00:04:22;;;;;;;0.70;0.20;;;;;;;15.31;48.66;99247.69;5013992;28;20026;-70
2023/01/09 00:06:52;;;;;;;1.55;0.10;;;;;;;15.31;50.31;99244.16;5022997;28;20116;-69
2023/01/09 00:09:22;;;;;;;0.25;0.22;;;;;;;15.32;50.00;99243.13;5024400;28;20113;-70
2023/01/09 00:11:48;;;;;;;0.40;0.10;;;;;;;15.29;49.33;99238.97;5022961;28;20156;-70
2023/01/09 00:14:17;;;;;;;0.10;0.10;;;;;;;15.28;49.21;99247.25;5024680;28;20057;-70
2023/01/09 00:16:43;;;;;;;0.25;0.20;;;;;;;15.27;49.45;99257.19;5023318;28;20026;-69
2023/01/09 00:19:09;;;;;;;0.63;0.15;;;;;;;15.27;50.19;99253.69;5022756;28;20083;-69
2023/01/09 00:21:35;;;;;;;1.85;0.17;;;;;;;15.23;49.39;99255.94;5024166;28;20107;-69
2023/01/09 00:24:00;;;;;;;0.10;0.10;;;;;;;15.19;48.59;99257.34;5022725;28;20121;-70
2023/01/09 00:26:26;;;;;;;0.10;0.10;;;;;;;15.17;48.64;99251.31;5022239;28;20425;-69
2023/01/09 00:28:52;;;;;;;0.47;0.40;;;;;;;15.12;49.98;99251.09;5022721;28;20544;-69
2023/01/09 00:31:18;;;;;;;0.15;0.15;;;;;;;15.11;49.89;99254.81;5022223;28;20022;-69
2023/01/09 00:33:48;;;;;;;0.35;0.20;;;;;;;15.06;49.53;99254.56;5022990;28;20490;-70
2023/01/09 00:36:13;;;;;;;0.40;0.10;;;;;;;15.05;49.07;99260.97;5022790;28;20083;-69
2023/01/09 00:38:39;;;;;;;0.40;0.10;;;;;;;15.07;48.95;99256.25;5021102;28;20101;-70
2023/01/09 00:41:07;;;;;;;0.38;0.20;;;;;;;15.09;48.79;99273.06;5023031;28;20032;-70
2023/01/09 00:43:40;;;;;;;0.10;0.10;;;;;;;15.07;50.21;99278.63;5023782;28;20025;-69
2023/01/09 00:46:06;;;;;;;0.80;0.00;;;;;;;15.10;50.09;99269.34;5021835;28;20026;-68
2023/01/09 00:48:32;;;;;;;1.42;0.35;;;;;;;15.12;49.24;99272.66;5020497;28;20050;-68
2023/01/09 00:50:58;;;;;;;5.78;0.15;;;;;;;15.13;50.02;99268.94;5022489;28;20037;-69
2023/01/09 00:53:27;;;;;;;0.30;0.10;;;;;;;15.14;48.38;99266.03;5022044;28;20021;-70
2023/01/09 00:55:53;;;;;;;0.75;0.22;;;;;;;15.16;49.53;99273.91;5022314;28;20528;-71
2023/01/09 00:58:19;;;;;;;0.57;0.20;;;;;;;15.13;49.87;99264.38;5021955;28;20040;-69
2023/01/09 01:00:44;;;;;;;0.20;0.10;;;;;;;15.15;48.79;99274.97;5015405;28;20030;-70
2023/01/09 01:03:09;;;;;;;0.30;0.20;;;;;;;15.14;49.58;99279.53;5012936;28;20401;-70
2023/01/09 01:08:26;;;;;;;2.13;0.35;;;;;;;15.11;48.59;99287.16;4998620;28;20069;-68
2023/01/09 01:10:51;;;;;;;0.10;0.10;;;;;;;15.11;47.92;99282.63;5014011;28;20092;-69
2023/01/09 01:13:17;;;;;;;0.47;0.20;;;;;;;15.12;47.77;99284.28;5012299;28;20046;-68
2023/01/09 01:15:44;;;;;;;0.20;0.10;;;;;;;15.11;49.41;99289.88;5014128;28;20061;-69
2023/01/09 01:18:10;;;;;;;0.38;0.20;;;;;;;15.10;47.92;99288.22;5012504;28;20379;-67
2023/01/09 01:20:35;;;;;;;0.20;0.20;;;;;;;15.09;48.06;99294.63;5013846;28;20024;-70
2023/01/09 01:23:01;;;;;;;1.00;0.40;;;;;;;15.08;47.81;99288.41;5014018;28;20034;-69
2023/01/09 01:25:26;;;;;;;3.60;0.45;;;;;;;15.09;49.26;99297.31;5013697;28;20061;-69
2023/01/09 01:27:51;;;;;;;0.22;0.20;;;;;;;15.08;48.62;99288.41;5013248;28;20030;-69
2023/01/09 01:30:18;;;;;;;0.10;0.00;;;;;;;15.08;48.93;99295.66;5013646;28;20498;-69
2023/01/09 01:32:44;;;;;;;0.43;0.43;;;;;;;15.07;49.16;99291.31;5013578;28;20017;-69
2023/01/09 01:35:10;;;;;;;2.55;0.55;;;;;;;15.06;48.22;99286.94;5013007;28;20060;-70
2023/01/09 01:37:37;;;;;;;1.05;0.28;;;;;;;15.04;48.68;99286.31;5013470;28;20037;-69
2023/01/09 01:40:04;;;;;;;0.35;0.32;;;;;;;15.03;47.99;99279.22;5013631;28;20121;-69
2023/01/09 01:42:30;;;;;;;0.22;0.20;;;;;;;15.03;48.89;99296.25;5013411;28;20034;-69
2023/01/09 01:45:09;;;;;;;2.20;0.13;;;;;;;15.04;47.67;99310.56;5013402;28;20037;-68
2023/01/09 01:47:48;;;;;;;0.73;0.30;;;;;;;15.02;48.23;99315.31;5021952;28;20536;-70
2023/01/09 01:50:33;;;;;;;6.55;0.50;;;;;;;15.02;47.50;99315.31;5015688;28;20026;-70
2023/01/09 01:53:10;;;;;;;0.65;0.13;;;;;;;15.00;47.57;99312.81;5015607;28;20040;-69
2023/01/09 01:55:40;;;;;;;0.75;0.20;;;;;;;14.99;48.72;99327.31;5015241;28;20053;-69
2023/01/09 01:58:09;;;;;;;0.63;0.25;;;;;;;15.00;47.79;99329.00;5032876;28;20061;-70
2023/01/09 02:00:39;;;;;;;0.10;0.10;;;;;;;14.98;47.46;99331.06;5032830;28;20025;-69
2023/01/09 02:03:05;;;;;;;1.10;0.40;;;;;;;14.97;48.96;99344.72;5015226;28;20026;-69
2023/01/09 02:05:32;;;;;;;0.80;0.20;;;;;;;14.95;48.37;99346.78;5015266;28;20037;-69
2023/01/09 02:07:57;;;;;;;1.23;0.32;;;;;;;14.93;48.22;99349.69;5015843;28;20026;-70
2023/01/09 02:10:23;;;;;;;1.20;0.30;;;;;;;14.92;49.03;99336.38;5032815;28;20041;-69
2023/01/09 02:12:49;;;;;;;1.77;0.80;;;;;;;14.89;47.72;99334.06;5032626;28;20501;-69
2023/01/09 02:15:15;;;;;;;0.22;0.22;;;;;;;14.87;48.18;99338.81;5015141;28;20037;-70
2023/01/09 02:17:49;;;;;;;1.60;0.47;;;;;;;14.89;49.00;99331.38;5015437;28;20041;-70
2023/01/09 02:20:47;;;;;;;5.97;0.43;;;;;;;14.88;48.95;99332.41;5032911;28;20023;-69
2023/01/09 02:23:41;;;;;;;0.52;0.50;;;;;;;14.85;48.12;99335.50;4998671;28;20520;-69
2023/01/09 02:26:34;;;;;;;0.40;0.30;;;;;;;14.83;47.33;99337.53;5036974;28;20565;-69
2023/01/09 02:29:08;;;;;;;4.78;0.55;;;;;;;14.83;48.96;99340.22;5036835;28;20041;-69
2023/01/09 02:31:49;;;;;;;0.77;0.68;;;;;;;14.82;47.38;99341.28;5036622;28;20034;-69
2023/01/09 02:34:25;;;;;;;1.92;0.50;;;;;;;14.79;48.14;99341.66;5036611;28;20128;-68
2023/01/09 02:37:18;;;;;;;2.33;1.33;;;;;;;14.75;48.62;99333.13;5018581;28;20069;-70
2023/01/09 02:39:51;;;;;;;0.77;0.40;;;;;;;14.70;47.38;99345.50;5028913;28;20029;-70
2023/01/09 02:42:20;;;;;;;1.25;0.50;;;;;;;14.63;47.02;99331.13;5056586;28;20041;-69
2023/01/09 02:44:46;;;;;;;4.88;0.65;;;;;;;14.58;48.08;99334.38;5038758;28;20044;-69
2023/01/09 02:47:14;;;;;;;2.88;0.43;;;;;;;14.52;48.63;99333.28;5038587;28;20080;-69
2023/01/09 02:49:45;;;;;;;1.50;0.40;;;;;;;14.49;48.85;99330.97;5020292;28;20068;-69
2023/01/09 02:52:44;;;;;;;4.05;0.50;;;;;;;14.45;47.92;99329.72;5050435;28;20033;-68
2023/01/09 02:55:28;;;;;;;2.70;0.50;;;;;;;14.41;47.52;99333.78;5025058;28;20086;-68
2023/01/09 02:57:53;;;;;;;3.20;0.30;;;;;;;14.34;48.23;99343.66;5055891;28;20594;-69
2023/01/09 03:01:03;;;;;;;6.28;0.52;;;;;;;14.29;48.17;99337.97;5056036;28;20115;-69
2023/01/09 03:03:39;;;;;;;2.28;0.45;;;;;;;14.27;48.75;99339.19;4988540;28;20065;-70
2023/01/09 03:06:21;;;;;;;1.52;0.47;;;;;;;14.26;47.89;99334.84;5034805;28;20064;-69
2023/01/09 03:08:51;;;;;;;1.77;0.52;;;;;;;14.25;48.40;99338.53;5037226;28;20527;-69
2023/01/09 03:11:16;;;;;;;0.50;0.35;;;;;;;14.24;47.26;99328.78;5038419;28;20396;-70
2023/01/09 03:13:54;;;;;;;4.40;0.60;;;;;;;14.20;47.87;99325.66;5055680;28;20116;-69
2023/01/09 03:16:24;;;;;;;5.93;0.40;;;;;;;14.19;47.52;99331.22;5037924;28;20377;-68
2023/01/09 03:18:50;;;;;;;0.93;0.40;;;;;;;14.15;48.66;99327.25;5038064;28;20087;-70
2023/01/09 03:21:16;;;;;;;0.95;0.57;;;;;;;14.12;47.54;99333.00;5055650;28;20041;-68
2023/01/09 03:23:49;;;;;;;0.70;0.57;;;;;;;14.10;48.03;99329.69;5037764;28;20029;-69
2023/01/09 03:26:14;;;;;;;5.10;1.02;;;;;;;14.10;47.62;99329.69;5055887;28;20021;-70
2023/01/09 03:28:40;;;;;;;1.75;0.65;;;;;;;14.07;47.51;99336.25;5055641;28;20040;-69
2023/01/09 03:31:06;;;;;;;3.28;0.52;;;;;;;14.06;47.20;99334.59;5021123;28;20489;-69
2023/01/09 03:33:31;;;;;;;1.80;0.35;;;;;;;14.04;48.21;99333.97;5036180;28;20047;-69
2023/01/09 03:35:57;;;;;;;2.13;0.60;;;;;;;14.00;48.57;99335.34;5036877;28;20029;-70
2023/01/09 03:38:22;;;;;;;2.75;0.45;;;;;;;13.97;47.58;99335.72;5055751;28;20047;-70
2023/01/09 03:40:47;;;;;;;2.90;0.50;;;;;;;13.95;47.44;99337.75;5055374;28;20037;-68
2023/01/09 03:43:13;;;;;;;3.17;0.60;;;;;;;13.94;48.48;99339.63;5055671;28;20041;-69
2023/01/09 03:45:38;;;;;;;4.78;0.93;;;;;;;13.93;48.38;99329.06;5037623;28;20033;-69
2023/01/09 03:48:04;;;;;;;1.42;0.93;;;;;;;13.93;48.76;99339.81;5055590;28;20480;-69
2023/01/09 03:50:29;;;;;;;1.13;0.47;;;;;;;13.94;47.42;99341.47;5056520;28;20025;-69
2023/01/09 03:52:54;;;;;;;2.30;0.30;;;;;;;13.95;47.85;99340.47;5037778;28;20021;-69
2023/01/09 03:55:20;;;;;;;1.15;0.98;;;;;;;13.93;48.42;99339.81;5054964;28;20527;-70
2023/01/09 03:57:45;;;;;;;2.58;1.15;;;;;;;13.93;47.33;99345.19;5036865;28;20198;-69
2023/01/09 04:00:11;;;;;;;4.20;0.80;;;;;;;13.93;48.57;99334.44;5037103;28;20071;-68
2023/01/09 04:02:36;;;;;;;3.50;0.30;;;;;;;13.96;48.74;99350.19;5054938;28;20040;-69
2023/01/09 04:05:02;;;;;;;0.73;0.50;;;;;;;13.98;48.46;99348.16;5037459;28;20142;-69
2023/01/09 04:07:27;;;;;;;4.22;0.60;;;;;;;14.00;48.79;99354.19;5054683;28;20033;-68
2023/01/09 04:09:52;;;;;;;0.90;0.77;;;;;;;14.03;48.65;99351.13;5054664;28;20045;-70
2023/01/09 04:12:19;;;;;;;3.97;0.55;;;;;;;14.06;48.84;99358.81;5054680;28;20035;-70
2023/01/09 04:14:44;;;;;;;2.33;1.40;;;;;;;14.05;49.06;99348.22;5054683;28;20032;-70
2023/01/09 04:17:10;;;;;;;1.10;0.77;;;;;;;14.07;49.02;99357.78;5037049;28;20047;-69
2023/01/09 04:19:35;;;;;;;1.20;0.95;;;;;;;14.09;47.39;99349.53;5054363;28;20083;-68
2023/01/09 04:22:00;;;;;;;2.15;0.43;;;;;;;14.10;47.12;99354.72;5054267;28;20037;-68
2023/01/09 04:24:27;;;;;;;3.50;0.50;;;;;;;14.12;47.38;99354.53;5054575;28;20041;-69
2023/01/09 04:26:52;;;;;;;0.90;0.70;;;;;;;14.11;48.03;99355.56;5054249;28;20112;-68
2023/01/09 04:29:18;;;;;;;2.00;0.80;;;;;;;14.14;48.86;99350.63;5054666;28;20029;-70
2023/01/09 04:31:43;;;;;;;0.90;0.40;;;;;;;14.17;47.56;99357.50;5054267;28;20025;-69
2023/01/09 04:34:08;;;;;;;1.05;0.47;;;;;;;14.15;48.29;99346.94;5036345;28;20083;-69
2023/01/09 04:36:35;;;;;;;5.03;0.45;;;;;;;14.18;47.52;99354.59;5027338;28;20381;-70
2023/01/09 04:39:00;;;;;;;1.52;0.52;;;;;;;14.20;48.33;99357.97;5038858;28;20025;-70
2023/01/09 04:44:09;;;;;;;2.90;0.52;;;;;;;14.25;48.74;99355.53;5054274;28;20044;-69
2023/01/09 04:46:35;;;;;;;2.00;0.32;;;;;;;14.28;48.70;99362.41;5053844;28;20033;-70
2023/01/09 04:49:01;;;;;;;5.80;0.88;;;;;;;14.28;48.29;99347.09;5053146;28;20128;-69
2023/01/09 04:51:26;;;;;;;3.55;0.50;;;;;;;14.31;47.53;99353.94;5036139;28;20037;-68
2023/01/09 04:53:51;;;;;;;6.43;0.50;;;;;;;14.30;48.89;99342.34;5053962;28;20033;-69
2023/01/09 04:56:17;;;;;;;1.70;0.30;;;;;;;14.34;47.72;99337.44;5036463;28;20392;-69
2023/01/09 04:58:42;;;;;;;8.68;0.80;;;;;;;14.37;47.87;99331.69;5053637;28;20032;-69
2023/01/09 05:01:07;;;;;;;3.72;0.50;;;;;;;14.38;47.47;99334.16;5035662;28;20068;-69
2023/01/09 05:03:33;;;;;;;0.73;0.40;;;;;;;14.38;47.69;99339.56;5035784;28;20041;-70
2023/01/09 05:05:58;;;;;;;3.20;0.60;;;;;;;14.37;47.41;99337.91;5053838;28;20033;-70
2023/01/09 05:08:23;;;;;;;1.50;0.20;;;;;;;14.37;47.16;99339.75;5036558;28;20108;-69
2023/01/09 05:10:49;;;;;;;0.63;0.50;;;;;;;14.38;46.99;99344.94;5053394;28;20091;-69
2023/01/09 05:13:14;;;;;;;6.20;0.60;;;;;;;14.38;47.56;99336.88;5053477;28;20041;-68
2023/01/09 05:15:39;;;;;;;4.63;1.13;;;;;;;14.39;47.67;99332.31;5053371;28;20110;-68
2023/01/09 05:18:05;;;;;;;4.57;0.68;;;;;;;14.41;48.21;99327.56;5035550;28;20073;-70
2023/01/09 05:20:30;;;;;;;7.60;0.57;;;;;;;14.41;47.53;99333.78;5053170;28;20037;-70
2023/01/09 05:22:56;;;;;;;4.57;0.77;;;;;;;14.42;48.16;99330.09;5036094;28;20064;-69
2023/01/09 05:25:21;;;;;;;2.40;0.50;;;;;;;14.45;48.62;99329.72;5053469;28;20461;-69
2023/01/09 05:27:46;;;;;;;1.75;0.65;;;;;;;14.49;47.19;99335.53;5035397;28;20127;-69
2023/01/09 05:30:13;;;;;;;7.13;0.63;;;;;;;14.49;48.47;99330.13;5035537;28;20037;-69
2023/01/09 05:32:38;;;;;;;2.88;0.70;;;;;;;14.51;47.49;99338.88;5053746;28;20100;-69
2023/01/09 05:35:04;;;;;;;1.85;0.50;;;;;;;14.51;48.55;99350.50;5053867;28;20478;-69
2023/01/09 05:37:29;;;;;;;3.70;0.70;;;;;;;14.52;47.98;99341.38;5053118;28;20037;-68
2023/01/09 05:39:54;;;;;;;1.80;0.65;;;;;;;14.56;48.43;99353.44;5053013;28;20033;-69
2023/01/09 05:42:20;;;;;;;4.88;0.60;;;;;;;14.59;47.26;99352.22;5052856;28;20037;-69
2023/01/09 05:44:45;;;;;;;8.45;0.95;;;;;;;14.60;47.92;99345.78;5051961;28;20056;-70
2023/01/09 05:47:11;;;;;;;3.90;0.30;;;;;;;14.62;48.42;99359.09;5035318;28;20060;-69
2023/01/09 05:49:36;;;;;;;3.13;0.57;;;;;;;14.61;48.02;99350.19;5017520;28;20053;-69
2023/01/09 05:52:01;;;;;;;3.53;0.88;;;;;;;14.62;48.16;99348.31;5045789;28;20032;-68
2023/01/09 05:54:27;;;;;;;4.70;0.98;;;;;;;14.63;48.41;99348.13;5052820;28;20128;-69
2023/01/09 05:56:52;;;;;;;3.85;0.57;;;;;;;14.63;46.96;99355.38;5053824;28;20033;-69
2023/01/09 05:59:18;;;;;;;5.10;0.63;;;;;;;14.65;47.18;99356.88;5035846;28;20029;-68
2023/01/09 06:01:44;;;;;;;6.70;0.50;;;;;;;14.64;47.90;99349.78;5052669;28;20029;-69
2023/01/09 06:04:09;;;;;;;3.63;1.65;;;;;;;14.65;47.24;99350.63;5052499;28;20075;-70
2023/01/09 06:06:34;;;;;;;5.28;0.65;;;;;;;14.64;47.17;99354.34;5052763;28;20059;-69
2023/01/09 06:09:00;;;;;;;3.05;0.60;;;;;;;14.68;46.85;99344.88;5052892;28;20116;-69
2023/01/09 06:11:25;;;;;;;6.78;0.73;;;;;;;14.71;46.87;99350.72;5035850;28;20028;-69
2023/01/09 06:13:50;;;;;;;3.22;0.63;;;;;;;14.72;47.17;99343.44;5052622;28;20037;-69
2023/01/09 06:16:16;;;;;;;5.40;0.90;;;;;;;14.71;48.13;99339.09;5052367;28;20112;-68
2023/01/09 06:18:41;;;;;;;6.43;1.75;;;;;;;14.72;47.54;99343.44;5034708;28;20029;-68
2023/01/09 06:21:07;;;;;;;4.95;0.70;;;;;;;14.73;47.82;99342.41;5052662;28;20492;-68
2023/01/09 06:23:32;;;;;;;7.63;0.68;;;;;;;14.73;47.05;99342.41;5034640;28;20036;-69
2023/01/09 06:25:57;;;;;;;9.48;1.10;;;;;;;14.75;47.18;99341.19;5053026;28;20029;-69
2023/01/09 06:28:23;;;;;;;8.15;0.88;;;;;;;14.76;48.52;99342.03;5052426;28;20029;-68
2023/01/09 06:30:51;;;;;;;3.25;1.00;;;;;;;14.76;47.04;99340.19;5052473;28;20562;-68
2023/01/09 06:33:17;;;;;;;3.97;0.80;;;;;;;14.76;47.71;99339.34;5052722;28;20029;-69
2023/01/09 06:35:42;;;;;;;8.60;0.88;;;;;;;14.75;46.95;99334.97;5053161;28;20442;-69
2023/01/09 06:38:08;;;;;;;7.03;1.50;;;;;;;14.76;47.62;99336.66;5053141;28;20029;-68
2023/01/09 06:40:33;;;;;;;1.65;0.60;;;;;;;14.79;48.04;99352.44;5034649;28;20037;-68
2023/01/09 06:42:58;;;;;;;3.40;0.80;;;;;;;14.81;46.88;99361.16;5022173;28;20063;-69
2023/01/09 06:45:24;;;;;;;2.17;0.82;;;;;;;14.80;47.51;99344.16;5015156;28;20056;-68
2023/01/09 06:47:49;;;;;;;4.10;0.70;;;;;;;14.79;47.83;99353.28;5035373;28;20049;-68
2023/01/09 06:50:15;;;;;;;2.83;0.60;;;;;;;14.80;48.43;99356.78;5053025;28;20111;-70
2023/01/09 06:52:40;;;;;;;5.53;0.70;;;;;;;14.79;47.63;99355.13;5052214;28;20041;-68
2023/01/09 06:55:06;;;;;;;1.17;0.50;;;;;;;14.77;47.06;99355.31;5052105;28;20033;-71
2023/01/09 06:57:32;;;;;;;5.80;0.93;;;;;;;14.79;48.43;99358.66;5052558;28;20033;-69
2023/01/09 06:59:57;;;;;;;3.88;0.47;;;;;;;14.81;48.46;99350.38;5051682;28;20481;-68
2023/01/09 07:02:23;;;;;;;3.65;0.95;;;;;;;14.80;46.72;99351.41;5052756;28;20116;-69
2023/01/09 07:04:48;;;;;;;3.03;0.68;;;;;;;14.80;46.73;99351.41;5051114;28;20444;-67
2023/01/09 07:07:13;;;;;;;4.03;0.82;;;;;;;14.80;48.22;99354.94;5052095;28;20040;-67
2023/01/09 07:09:39;;;;;;;2.33;1.13;;;;;;;14.82;46.74;99352.06;5034430;28;20048;-69
2023/01/09 07:12:04;;;;;;;10.90;0.90;;;;;;;14.82;47.00;99349.38;5054702;28;20033;-69
2023/01/09 07:14:30;;;;;;;2.47;0.63;;;;;;;14.83;46.90;99356.41;5056067;28;20035;-66
2023/01/09 07:16:55;;;;;;;4.22;0.60;;;;;;;14.81;46.87;99355.78;5056100;28;20029;-68
2023/01/09 07:19:20;;;;;;;6.07;1.00;;;;;;;14.83;48.17;99364.50;5005952;28;20124;-67
2023/01/09 07:21:46;;;;;;;3.92;0.60;;;;;;;14.85;47.65;99362.47;5046184;28;20056;-69
2023/01/09 07:24:11;;;;;;;6.35;0.68;;;;;;;14.84;48.11;99355.38;5055404;28;20132;-69
2023/01/09 07:26:37;;;;;;;5.40;0.57;;;;;;;14.84;47.45;99376.94;5055473;28;20159;-68
2023/01/09 07:29:02;;;;;;;3.28;0.50;;;;;;;14.85;48.29;99365.16;5056789;28;20422;-69
2023/01/09 07:31:28;;;;;;;3.25;0.57;;;;;;;14.87;48.29;99387.34;5055359;28;20068;-70
2023/01/09 07:33:53;;;;;;;7.20;0.77;;;;;;;14.91;48.00;99383.22;5055373;28;20496;-69
2023/01/09 07:36:18;;;;;;;4.90;0.80;;;;;;;14.94;47.98;99383.69;5055424;28;20506;-68
2023/01/09 07:38:44;;;;;;;4.55;0.57;;;;;;;14.96;46.44;99397.00;5055021;28;20029;-68
2023/01/09 07:41:09;;;;;;;2.75;0.63;;;;;;;14.98;47.79;99394.94;5055878;28;20535;-68
2023/01/09 07:43:36;;;;;;;3.92;0.75;;;;;;;15.01;46.86;99406.19;5037469;28;20033;-68
2023/01/09 07:46:01;;;;;;;4.45;0.40;;;;;;;15.06;47.21;99400.19;5055162;28;20075;-70
2023/01/09 07:48:27;;;;;;;1.70;0.60;;;;;;;15.08;46.39;99400.81;5054706;28;20037;-69
2023/01/09 07:50:52;;;;;;;0.95;0.73;;;;;;;15.08;46.53;99411.63;5034137;28;20030;-68
2023/01/09 07:53:18;;;;;;;3.22;0.82;;;;;;;15.12;46.93;99407.53;5035596;28;20049;-67
2023/01/09 07:55:43;;;;;;;2.47;0.50;;;;;;;15.14;47.57;99416.25;5017059;28;20033;-68
2023/01/09 07:58:08;;;;;;;7.20;0.57;;;;;;;15.21;47.63;99419.00;5048871;28;20048;-68
2023/01/09 08:00:34;;;;;;;3.03;0.57;;;;;;;15.24;47.35;99416.78;5028041;28;20038;-67
2023/01/09 08:03:00;;;;;;;4.90;0.80;;;;;;;15.28;47.66;99418.03;5039277;28;20036;-69
2023/01/09 08:05:25;;;;;;;5.88;0.60;;;;;;;15.30;46.79;99426.75;5020865;28;20028;-68
2023/01/09 08:07:51;;;;;;;5.93;0.55;;;;;;;15.31;46.18;99427.59;5054796;28;20554;-69
2023/01/09 08:10:19;;;;;;;1.05;0.45;;;;;;;15.31;46.19;99436.53;5054963;28;20041;-70
2023/01/09 08:12:45;;;;;;;5.70;0.50;;;;;;;15.30;46.26;99434.84;5054714;28;20029;-70
2023/01/09 08:15:11;;;;;;;1.60;0.40;;;;;;;15.32;47.45;99440.06;5036849;28;20378;-69
2023/01/09 08:17:38;;;;;;;6.53;0.90;;;;;;;15.32;46.10;99446.31;5054525;28;20021;-67
2023/01/09 08:20:04;;;;;;;2.15;0.60;;;;;;;15.34;47.54;99449.66;5054921;28;20499;-68
2023/01/09 08:22:29;;;;;;;2.03;0.55;;;;;;;15.36;45.94;99449.44;5054212;28;20033;-68
2023/01/09 08:24:54;;;;;;;2.47;0.63;;;;;;;15.39;46.50;99451.75;5054436;28;20492;-69
2023/01/09 08:27:20;;;;;;;4.90;0.85;;;;;;;15.42;47.22;99465.69;5054220;28;20040;-68
2023/01/09 08:29:45;;;;;;;3.55;0.45;;;;;;;15.46;47.50;99461.63;5036431;28;20033;-67
2023/01/09 08:32:10;;;;;;;2.65;0.73;;;;;;;15.46;47.53;99464.31;5054611;28;20033;-67
2023/01/09 08:34:36;;;;;;;1.80;0.52;;;;;;;15.50;47.21;99471.00;5054385;28;20467;-69
2023/01/09 08:37:01;;;;;;;7.90;0.55;;;;;;;15.55;46.02;99476.63;5007137;28;20038;-69
2023/01/09 08:39:27;;;;;;;3.17;0.40;;;;;;;15.62;47.49;99471.31;5016511;28;20523;-68
2023/01/09 08:47:21;;;;;;;6.97;0.90;;;;;;;15.69;46.82;99486.53;5054215;28;20067;-69
2023/01/09 08:49:46;;;;;;;0.82;0.35;;;;;;;15.71;46.00;99489.88;5053893;28;20106;-69
2023/01/09 08:52:12;;;;;;;1.63;0.70;;;;;;;15.69;47.14;99494.63;5036048;28;20052;-67
2023/01/09 08:54:38;;;;;;;4.30;1.15;;;;;;;15.70;47.10;99503.56;5053995;28;20041;-66
2023/01/09 08:57:04;;;;;;;2.53;0.52;;;;;;;15.69;47.13;99500.00;5053993;28;20534;-68
2023/01/09 08:59:30;;;;;;;3.05;0.50;;;;;;;15.66;45.96;99513.91;5053601;28;20061;-67
2023/01/09 09:01:55;;;;;;;6.38;0.93;;;;;;;15.66;47.06;99511.19;5054120;28;20053;-69
2023/01/09 09:04:20;;;;;;;6.60;0.90;;;;;;;15.65;45.90;99523.06;5053675;28;20041;-68
2023/01/09 09:06:46;;;;;;;4.85;0.82;;;;;;;15.63;47.67;99525.09;5053508;28;20033;-69
2023/01/09 09:09:11;;;;;;;1.45;0.40;;;;;;;15.59;47.78;99522.97;5053539;28;20119;-68
2023/01/09 09:11:37;;;;;;;5.35;0.77;;;;;;;15.55;46.37;99522.53;5053338;28;20027;-68
2023/01/09 09:15:11;;;;;;;1.83;0.65;;;;;;;15.58;46.25;99527.53;5053767;28;20105;-68
2023/01/09 09:16:48;;;;;;;8.77;0.55;;;;;;;15.70;46.31;99527.84;5053455;28;20067;-68
2023/01/09 09:19:13;;;;;;;2.53;0.40;;;;;;;15.86;47.06;99535.69;5053365;28;20040;-69
2023/01/09 09:21:39;;;;;;;2.58;0.50;;;;;;;16.00;45.85;99531.22;5053552;28;20037;-69
2023/01/09 09:24:04;;;;;;;3.67;0.73;;;;;;;16.08;45.57;99523.81;5035567;28;20116;-69
2023/01/09 09:26:30;;;;;;;5.00;0.40;;;;;;;16.19;45.77;99541.38;5035263;28;20033;-67
2023/01/09 09:28:55;;;;;;;2.25;0.73;;;;;;;16.34;46.44;99547.47;5053555;28;20040;-68
2023/01/09 09:31:20;;;;;;;3.22;1.10;;;;;;;16.56;46.27;99549.09;5053165;28;20036;-69
2023/01/09 09:33:46;;;;;;;4.13;1.05;;;;;;;16.79;44.95;99562.34;5052420;28;20049;-68
2023/01/09 09:36:11;;;;;;;3.60;0.98;;;;;;;16.88;46.12;99571.97;5053146;28;20447;-69
2023/01/09 09:38:36;;;;;;;2.67;0.75;;;;;;;16.91;45.70;99568.03;5053153;28;20032;-71
2023/01/09 09:44:50;;;;;;;4.22;0.52;;;;;;;16.79;45.59;99587.53;5053129;28;20044;-70
2023/01/09 09:47:33;;;;;;;1.67;0.45;;;;;;;16.67;46.96;99589.09;5039093;28;20060;-70
2023/01/09 09:50:15;;;;;;;11.88;1.00;;;;;;;16.64;46.32;99583.25;5053060;28;20053;-69
2023/01/09 09:52:40;;;;;;;5.93;0.68;;;;;;;16.66;46.24;99598.28;5052816;28;20033;-71
2023/01/09 09:55:33;;;;;;;1.80;0.55;;;;;;;16.70;45.92;99594.13;5052887;28;20089;-70
2023/01/09 09:58:02;;;;;;;4.53;1.10;;;;;;;16.69;45.93;99606.00;5052221;28;20033;-69
2023/01/09 10:00:28;;;;;;;2.80;0.57;;;;;;;16.65;44.96;99607.41;5034972;28;20048;-70
2023/01/09 10:03:19;;;;;;;3.60;0.55;;;;;;;16.62;45.04;99607.81;5052572;28;20041;-69
2023/01/09 10:05:45;;;;;;;2.13;0.60;;;;;;;16.58;46.79;99622.75;5052744;28;20041;-69
2023/01/09 10:08:48;;;;;;;1.60;0.50;;;;;;;16.56;45.94;99635.63;5036281;28;20123;-69
2023/01/09 10:11:23;;;;;;;4.82;0.50;;;;;;;16.49;45.72;99626.63;5052765;28;20079;-70
2023/01/09 10:14:04;;;;;;;3.92;0.40;;;;;;;16.52;45.62;99628.09;5052870;28;20090;-69
2023/01/09 10:16:29;;;;;;;1.95;0.35;;;;;;;16.56;46.10;99632.91;5052637;28;20028;-69
2023/01/09 10:19:10;;;;;;;4.53;0.43;;;;;;;16.57;46.59;99633.75;5053602;28;20029;-68
2023/01/09 10:21:45;;;;;;;0.60;0.43;;;;;;;16.69;45.18;99643.84;5052880;28;20451;-69
2023/01/09 10:24:19;;;;;;;0.20;0.20;;;;;;;16.81;44.76;99641.41;5034794;28;20040;-69
2023/01/09 10:26:52;;;;;;;1.48;0.32;;;;;;;17.02;45.50;99640.50;5052379;28;20041;-69
2023/01/09 10:29:25;;;;;;;1.55;0.30;;;;;;;17.04;45.68;99643.84;5034878;28;20037;-69
2023/01/09 10:32:18;;;;;;;0.17;0.17;;;;;;;16.99;44.55;99657.13;5035128;28;20496;-69
2023/01/09 10:34:58;;;;;;;2.37;0.43;;;;;;;16.91;44.70;99654.59;5034710;28;20556;-69
2023/01/09 10:37:33;;;;;;;0.63;0.20;;;;;;;16.79;44.69;99655.16;5034486;28;20055;-70
2023/01/09 10:40:04;;;;;;;1.15;0.20;;;;;;;16.69;45.23;99662.78;5034647;28;20025;-68
2023/01/09 10:42:46;;;;;;;0.20;0.20;;;;;;;16.61;45.53;99662.91;5052732;28;20029;-68
2023/01/09 10:45:21;;;;;;;0.57;0.40;;;;;;;16.55;44.82;99666.41;5034538;28;20037;-69
2023/01/09 10:47:46;;;;;;;0.25;0.22;;;;;;;16.51;45.69;99670.50;5056028;28;20045;-70
2023/01/09 10:50:16;;;;;;;0.22;0.22;;;;;;;16.49;44.84;99669.88;5027982;28;20381;-70
2023/01/09 10:52:42;;;;;;;0.70;0.47;;;;;;;16.48;45.14;99670.03;5042908;28;20057;-68
2023/01/09 10:55:18;;;;;;;1.65;0.30;;;;;;;16.46;44.41;99667.56;5038208;28;20060;-69
2023/01/09 10:57:46;;;;;;;2.30;0.68;;;;;;;16.48;44.14;99676.28;5056856;28;20029;-69
2023/01/09 11:00:18;;;;;;;0.80;0.40;;;;;;;16.50;44.89;99679.63;5019861;28;20068;-69
2023/01/09 11:02:44;;;;;;;0.82;0.35;;;;;;;16.54;45.35;99689.06;5051265;28;20037;-68
2023/01/09 11:05:21;;;;;;;1.88;0.35;;;;;;;16.61;44.51;99691.84;5028397;28;20044;-69
2023/01/09 11:07:54;;;;;;;0.68;0.30;;;;;;;16.68;45.15;99690.84;5043232;28;20037;-69
2023/01/09 11:10:20;;;;;;;0.63;0.40;;;;;;;16.62;45.28;99699.75;5038307;28;20035;-68
2023/01/09 11:12:46;;;;;;;3.20;0.50;;;;;;;16.58;44.65;99700.34;5056454;28;20095;-67
2023/01/09 11:15:14;;;;;;;0.63;0.63;;;;;;;16.50;44.22;99712.06;5036933;28;20030;-69
2023/01/09 11:17:40;;;;;;;0.28;0.28;;;;;;;16.40;44.64;99706.16;5035910;28;20497;-68
2023/01/09 11:20:12;;;;;;;0.45;0.30;;;;;;;16.30;44.50;99719.19;5027702;28;20044;-69
2023/01/09 11:22:44;;;;;;;2.72;0.45;;;;;;;16.21;44.90;99714.94;5055512;28;20033;-67
2023/01/09 11:25:12;;;;;;;1.77;0.50;;;;;;;16.19;44.40;99709.69;5055484;28;20074;-69
2023/01/09 11:27:37;;;;;;;0.60;0.30;;;;;;;16.17;44.15;99709.06;5038324;28;20017;-68
2023/01/09 11:30:19;;;;;;;2.03;0.38;;;;;;;16.18;44.72;99716.16;5020454;28;20036;-68
2023/01/09 11:32:45;;;;;;;3.03;0.40;;;;;;;16.23;44.70;99708.28;5017766;28;20030;-69
2023/01/09 11:35:17;;;;;;;0.30;0.20;;;;;;;16.36;43.85;99718.38;5035704;28;20060;-68
2023/01/09 11:37:43;;;;;;;0.60;0.20;;;;;;;16.55;44.83;99715.09;5017788;28;20029;-67
2023/01/09 11:40:19;;;;;;;1.27;0.38;;;;;;;16.63;44.81;99712.22;5016582;28;20592;-68
2023/01/09 11:43:29;;;;;;;1.92;0.40;;;;;;;16.64;44.00;99719.28;5016160;28;20117;-67
2023/01/09 11:45:57;;;;;;;4.55;0.40;;;;;;;16.61;43.53;99714.28;4953756;29;20070;-67
2023/01/09 11:48:42;;;;;;;1.15;0.38;;;;;;;16.80;43.31;99718.19;4953956;29;20059;-69
2023/01/09 11:51:19;;;;;;;0.55;0.35;;;;;;;16.72;44.72;99721.84;4954907;28;20042;-69
2023/01/09 11:54:00;;;;;;;2.60;0.60;;;;;;;16.72;44.08;99716.44;4973986;28;20122;-70
2023/01/09 11:56:25;;;;;;;1.35;0.43;;;;;;;16.72;43.67;99719.16;4941663;28;20055;-69